Time;durP1;ratioP1;P1;durP2;ratioP2;P2;SDS_P1;SDS_P2;PMS_P1;PMS_P2;Temp;Humidity;BMP_temperature;BMP_pressure;BME280_temperature;BME280_humidity;BME280_pressure;Samples;Min_cycle;Max_cycle;Signal;HPM_P1;HPM_P2
2022/08/28 00:01:56;;;;;;;13.63;8.43;;;18.10;99.90;;;;;;5227641;28;20548;-51
2022/08/28 00:04:27;;;;;;;14.60;8.90;;;18.20;99.90;;;;;;5234029;28;20460;-52
2022/08/28 00:06:58;;;;;;;18.40;9.73;;;18.10;99.90;;;;;;5236205;28;20202;-50
2022/08/28 00:09:28;;;;;;;16.83;9.13;;;18.00;99.90;;;;;;5244171;28;20232;-51
2022/08/28 00:12:00;;;;;;;9.57;7.90;;;18.00;99.90;;;;;;5237064;28;20562;-51
2022/08/28 00:14:31;;;;;;;12.70;9.97;;;18.00;99.90;;;;;;5227970;28;20264;-52
2022/08/28 00:17:02;;;;;;;16.73;10.30;;;18.10;99.90;;;;;;5232076;28;20518;-50
2022/08/28 00:19:33;;;;;;;9.23;8.23;;;18.00;99.90;;;;;;5239912;28;20252;-49
2022/08/28 00:22:06;;;;;;;15.60;9.50;;;18.00;99.90;;;;;;5244981;28;20916;-51
2022/08/28 00:24:36;;;;;;;13.70;9.10;;;17.90;99.90;;;;;;5238127;28;20426;-52
2022/08/28 00:29:56;;;;;;;9.10;7.70;;;18.00;99.90;;;;;;5235531;28;20201;-51
2022/08/28 00:32:27;;;;;;;10.30;9.03;;;18.00;99.90;;;;;;5234617;28;20520;-51
2022/08/28 00:35:00;;;;;;;15.60;9.13;;;18.00;99.90;;;;;;5230422;28;20709;-51
2022/08/28 00:37:31;;;;;;;14.00;9.13;;;18.10;99.90;;;;;;5232789;28;20282;-51
2022/08/28 00:40:01;;;;;;;17.13;8.97;;;18.00;99.90;;;;;;5237125;28;20980;-51
2022/08/28 00:42:33;;;;;;;16.23;9.50;;;18.00;99.90;;;;;;5227479;28;20210;-50
2022/08/28 00:45:05;;;;;;;15.20;8.43;;;18.00;99.90;;;;;;5230034;28;20226;-52
2022/08/28 00:47:38;;;;;;;15.50;8.40;;;17.90;99.90;;;;;;5238568;28;20482;-51
2022/08/28 00:50:11;;;;;;;13.40;8.40;;;17.90;99.90;;;;;;5234686;28;20886;-52
2022/08/28 00:52:47;;;;;;;12.03;8.90;;;17.80;99.90;;;;;;5244995;28;20437;-46
2022/08/28 00:55:21;;;;;;;10.50;7.80;;;17.90;99.90;;;;;;5236818;28;20488;-51
2022/08/28 00:57:59;;;;;;;11.73;8.40;;;17.90;99.90;;;;;;5250060;28;20681;-52
2022/08/28 01:00:34;;;;;;;16.53;6.77;;;18.00;99.90;;;;;;5264998;28;20466;-51
2022/08/28 01:03:05;;;;;;;12.57;6.80;;;17.90;99.90;;;;;;5246686;28;20427;-53
2022/08/28 01:05:38;;;;;;;15.47;8.10;;;17.90;99.90;;;;;;5233829;28;20820;-52
2022/08/28 01:08:09;;;;;;;6.50;5.70;;;17.80;99.90;;;;;;5257800;28;20436;-51
2022/08/28 01:10:41;;;;;;;15.87;7.00;;;17.90;99.90;;;;;;5240423;28;20441;-49
2022/08/28 01:13:13;;;;;;;13.97;6.47;;;17.90;99.90;;;;;;5237113;28;20193;-52
2022/08/28 01:15:44;;;;;;;19.23;7.20;;;18.00;99.90;;;;;;5241995;28;20813;-51
2022/08/28 01:18:16;;;;;;;10.97;5.93;;;18.00;99.90;;;;;;5231039;28;20888;-52
2022/08/28 01:21:23;;;;;;;9.70;6.10;;;18.00;99.90;;;;;;5238778;28;20445;-52
2022/08/28 01:24:13;;;;;;;12.67;6.50;;;18.00;99.90;;;;;;5236982;28;20445;-53
2022/08/28 01:26:44;;;;;;;20.07;5.93;;;18.10;99.90;;;;;;5250179;28;20479;-53
2022/08/28 01:29:15;;;;;;;14.57;6.40;;;18.20;99.90;;;;;;5255149;28;21031;-52
2022/08/28 01:31:47;;;;;;;15.70;7.83;;;18.10;99.90;;;;;;5247142;28;20199;-51
2022/08/28 01:34:17;;;;;;;10.03;6.80;;;18.10;99.90;;;;;;5236537;28;20453;-51
2022/08/28 01:36:48;;;;;;;16.50;6.60;;;18.10;99.90;;;;;;5234495;28;20463;-51
2022/08/28 01:39:21;;;;;;;9.40;6.70;;;18.10;99.90;;;;;;5230144;28;20238;-52
2022/08/28 01:41:54;;;;;;;15.90;7.13;;;18.20;99.90;;;;;;5241504;28;20250;-51
2022/08/28 01:44:26;;;;;;;14.73;6.90;;;18.20;99.90;;;;;;5245651;28;20911;-52
2022/08/28 01:46:58;;;;;;;11.70;6.80;;;18.30;99.90;;;;;;5245754;28;20880;-51
2022/08/28 01:49:28;;;;;;;10.80;6.50;;;18.30;99.90;;;;;;5234743;28;20471;-51
2022/08/28 01:51:59;;;;;;;22.83;7.83;;;18.30;99.90;;;;;;5246059;28;20531;-51
2022/08/28 01:54:30;;;;;;;16.10;6.73;;;18.30;99.90;;;;;;5243591;28;20558;-51
2022/08/28 01:57:00;;;;;;;10.77;7.30;;;18.30;99.90;;;;;;5242534;28;20186;-52
2022/08/28 01:59:32;;;;;;;9.13;7.83;;;18.30;99.90;;;;;;5245380;28;20206;-51
2022/08/28 02:02:03;;;;;;;12.13;7.30;;;18.40;99.90;;;;;;5251229;28;20526;-52
2022/08/28 02:04:34;;;;;;;14.93;7.13;;;18.40;99.90;;;;;;5241904;28;20435;-50
2022/08/28 02:07:04;;;;;;;9.37;7.37;;;18.40;99.90;;;;;;5249776;28;20933;-52
2022/08/28 02:09:36;;;;;;;10.40;7.20;;;18.40;99.90;;;;;;5242780;28;20492;-51
2022/08/28 02:12:07;;;;;;;17.10;7.90;;;18.50;99.90;;;;;;5246481;28;20206;-51
2022/08/28 02:14:38;;;;;;;11.20;7.80;;;18.50;99.90;;;;;;5237874;28;20475;-51
2022/08/28 02:17:09;;;;;;;10.07;7.63;;;18.50;99.90;;;;;;5246211;28;20217;-52
2022/08/28 02:19:40;;;;;;;14.77;7.37;;;18.50;99.90;;;;;;5240118;28;20213;-50
2022/08/28 02:22:12;;;;;;;12.50;7.90;;;18.50;99.90;;;;;;5242088;28;20951;-48
2022/08/28 02:24:42;;;;;;;11.87;7.40;;;18.40;99.90;;;;;;5248057;28;20194;-51
2022/08/28 02:27:13;;;;;;;13.17;8.93;;;18.40;99.90;;;;;;5249857;28;20424;-51
2022/08/28 02:29:44;;;;;;;15.63;9.03;;;18.40;99.90;;;;;;5243339;28;20228;-52
2022/08/28 02:32:14;;;;;;;18.30;9.43;;;18.40;99.90;;;;;;5240141;28;20602;-51
2022/08/28 02:34:45;;;;;;;11.80;8.63;;;18.40;99.90;;;;;;5242500;28;20697;-51
2022/08/28 02:37:15;;;;;;;15.70;8.10;;;18.40;99.90;;;;;;5244831;28;20171;-50
2022/08/28 02:39:46;;;;;;;12.03;8.60;;;18.40;99.90;;;;;;5227350;28;20198;-51
2022/08/28 02:42:17;;;;;;;18.13;9.47;;;18.50;99.90;;;;;;5249328;28;20190;-52
2022/08/28 02:44:48;;;;;;;16.83;8.27;;;18.50;99.90;;;;;;5239967;28;20179;-51
2022/08/28 02:47:19;;;;;;;14.10;9.47;;;18.40;99.90;;;;;;5244178;28;20953;-53
2022/08/28 02:49:50;;;;;;;18.93;8.87;;;18.50;99.90;;;;;;5241243;28;20627;-52
2022/08/28 02:52:23;;;;;;;11.23;8.60;;;18.50;99.90;;;;;;5236605;28;20209;-52
2022/08/28 02:54:53;;;;;;;15.20;9.13;;;18.30;99.90;;;;;;5233044;28;20686;-52
2022/08/28 02:57:25;;;;;;;21.37;9.70;;;18.40;99.90;;;;;;5246843;28;20557;-52
2022/08/28 02:59:55;;;;;;;12.80;7.67;;;18.40;99.90;;;;;;5225136;28;20202;-50
2022/08/28 03:02:26;;;;;;;20.67;8.50;;;18.30;99.90;;;;;;5234746;28;20473;-51
2022/08/28 03:04:58;;;;;;;11.30;7.70;;;18.40;99.90;;;;;;5228860;28;20183;-52
2022/08/28 03:07:29;;;;;;;13.13;7.70;;;18.40;99.90;;;;;;5248104;28;20668;-52
2022/08/28 03:10:00;;;;;;;8.60;7.03;;;18.40;99.90;;;;;;5242847;28;20539;-52
2022/08/28 03:12:30;;;;;;;13.13;7.20;;;18.40;99.90;;;;;;5246321;28;20186;-52
2022/08/28 03:15:02;;;;;;;11.67;7.67;;;18.30;99.90;;;;;;5232240;28;20206;-52
2022/08/28 03:17:33;;;;;;;15.27;6.80;;;18.30;99.90;;;;;;5228870;28;20191;-51
2022/08/28 03:20:07;;;;;;;15.00;7.03;;;18.30;99.90;;;;;;5234859;28;20464;-51
2022/08/28 03:25:28;;;;;;;9.17;6.00;;;18.20;99.90;;;;;;5230978;28;20548;-51
2022/08/28 03:27:58;;;;;;;10.33;6.57;;;18.10;99.90;;;;;;5239096;28;20444;-52
2022/08/28 03:30:29;;;;;;;11.60;6.73;;;18.10;99.90;;;;;;5241453;28;20213;-53
2022/08/28 03:33:00;;;;;;;10.93;5.90;;;18.10;99.90;;;;;;5237249;28;20205;-49
2022/08/28 03:35:31;;;;;;;14.60;7.07;;;18.10;99.90;;;;;;5228670;28;20203;-50
2022/08/28 03:38:01;;;;;;;7.03;5.37;;;18.10;99.90;;;;;;5257926;28;20519;-52
2022/08/28 03:40:32;;;;;;;6.77;5.43;;;18.10;99.90;;;;;;5251288;28;20186;-52
2022/08/28 03:43:03;;;;;;;17.60;6.07;;;18.10;99.90;;;;;;5243436;28;20189;-52
2022/08/28 03:45:33;;;;;;;10.70;6.30;;;18.10;99.90;;;;;;5231084;28;20183;-52
2022/08/28 03:48:07;;;;;;;8.77;6.20;;;18.00;99.90;;;;;;5233624;28;20183;-57
2022/08/28 03:50:39;;;;;;;19.23;6.70;;;18.00;99.90;;;;;;5230760;28;20512;-56
2022/08/28 03:53:09;;;;;;;9.27;6.30;;;18.00;99.90;;;;;;5219198;28;20465;-45
2022/08/28 03:55:43;;;;;;;12.77;6.20;;;18.00;99.90;;;;;;5226843;28;20645;-45
2022/08/28 03:58:14;;;;;;;9.60;5.57;;;17.90;99.90;;;;;;5250051;28;20636;-46
2022/08/28 04:00:46;;;;;;;13.60;6.23;;;18.00;99.90;;;;;;5236173;28;20429;-45
2022/08/28 04:03:17;;;;;;;9.17;5.57;;;18.00;99.90;;;;;;5243619;28;20420;-48
2022/08/28 04:05:47;;;;;;;13.43;5.87;;;18.00;99.90;;;;;;5239682;28;20438;-48
2022/08/28 04:08:19;;;;;;;9.13;5.17;;;18.10;99.90;;;;;;5224633;28;20460;-48
2022/08/28 04:10:50;;;;;;;12.63;5.50;;;18.00;99.90;;;;;;5241340;28;20186;-45
2022/08/28 04:13:22;;;;;;;10.13;5.70;;;18.00;99.90;;;;;;5226022;28;20461;-46
2022/08/28 04:16:09;;;;;;;10.10;4.80;;;18.00;99.90;;;;;;5237252;28;20832;-46
2022/08/28 04:18:41;;;;;;;14.30;6.33;;;18.00;99.90;;;;;;5237597;28;20452;-46
2022/08/28 04:21:15;;;;;;;9.83;5.70;;;17.90;99.90;;;;;;5241305;28;20478;-48
2022/08/28 04:23:47;;;;;;;18.17;6.03;;;17.90;99.90;;;;;;5233886;28;20425;-46
2022/08/28 04:26:19;;;;;;;7.33;5.00;;;18.00;99.90;;;;;;5237823;28;20774;-46
2022/08/28 04:28:51;;;;;;;12.47;4.67;;;17.90;99.90;;;;;;5237228;28;20503;-46
2022/08/28 04:31:22;;;;;;;12.43;5.30;;;18.00;99.90;;;;;;5228552;28;20944;-46
2022/08/28 04:33:54;;;;;;;6.73;4.27;;;18.00;99.90;;;;;;5240374;28;20441;-45
2022/08/28 04:36:25;;;;;;;11.07;4.80;;;18.00;99.90;;;;;;5228610;28;20450;-45
2022/08/28 04:38:56;;;;;;;13.57;5.43;;;18.00;99.90;;;;;;5235799;28;20452;-45
2022/08/28 04:41:27;;;;;;;9.50;4.63;;;18.00;99.90;;;;;;5240918;28;20179;-45
2022/08/28 04:43:58;;;;;;;10.23;4.80;;;18.00;99.90;;;;;;5226745;28;20443;-47
2022/08/28 04:46:29;;;;;;;13.43;4.57;;;18.00;99.90;;;;;;5231380;28;20731;-45
2022/08/28 04:48:59;;;;;;;8.93;4.03;;;17.90;99.90;;;;;;5233877;28;20218;-46
2022/08/28 04:51:30;;;;;;;4.30;3.93;;;18.00;99.90;;;;;;5226976;28;20175;-46
2022/08/28 04:54:02;;;;;;;9.47;3.70;;;18.00;99.90;;;;;;5231922;28;20225;-46
2022/08/28 04:56:33;;;;;;;9.10;4.40;;;17.90;99.90;;;;;;5238961;28;20203;-49
2022/08/28 04:59:04;;;;;;;12.73;3.90;;;17.90;99.90;;;;;;5227335;28;20873;-46
2022/08/28 05:01:34;;;;;;;21.50;4.10;;;17.90;99.90;;;;;;5237277;28;20449;-47
2022/08/28 05:04:05;;;;;;;12.43;4.27;;;17.90;99.90;;;;;;5242343;28;20218;-47
2022/08/28 05:06:42;;;;;;;8.23;3.80;;;17.90;99.90;;;;;;5249171;28;20190;-47
2022/08/28 05:09:17;;;;;;;7.23;4.50;;;17.80;99.90;;;;;;5241538;28;20283;-50
2022/08/28 05:11:48;;;;;;;14.10;3.93;;;17.80;99.90;;;;;;5236764;28;20436;-46
2022/08/28 05:14:20;;;;;;;11.00;4.00;;;17.80;99.90;;;;;;5245109;28;20552;-45
2022/08/28 05:16:52;;;;;;;16.67;3.90;;;17.80;99.90;;;;;;5243828;28;20452;-46
2022/08/28 05:19:24;;;;;;;10.70;4.33;;;17.70;99.90;;;;;;5242174;28;20548;-51
2022/08/28 05:21:55;;;;;;;13.73;3.50;;;17.70;99.90;;;;;;5240919;28;20452;-46
2022/08/28 05:24:25;;;;;;;11.77;4.97;;;17.80;99.90;;;;;;5243221;28;20441;-45
2022/08/28 05:26:56;;;;;;;12.20;3.60;;;17.80;99.90;;;;;;5239601;28;20211;-51
2022/08/28 05:29:27;;;;;;;11.20;3.87;;;17.90;99.90;;;;;;5243576;28;20205;-46
2022/08/28 05:31:57;;;;;;;12.30;4.20;;;17.90;99.90;;;;;;5245378;28;20186;-49
2022/08/28 05:34:28;;;;;;;7.37;3.80;;;17.90;99.90;;;;;;5244908;28;20213;-48
2022/08/28 05:36:58;;;;;;;5.97;3.60;;;17.90;99.90;;;;;;5240933;28;20185;-50
2022/08/28 05:39:30;;;;;;;6.63;3.03;;;17.90;99.90;;;;;;5237338;28;20297;-44
2022/08/28 05:42:00;;;;;;;11.43;4.40;;;17.90;99.90;;;;;;5245621;28;20232;-46
2022/08/28 05:44:31;;;;;;;8.87;4.00;;;17.90;99.90;;;;;;5240002;28;20444;-49
2022/08/28 05:47:02;;;;;;;6.00;3.00;;;17.70;99.90;;;;;;5245915;28;20209;-46
2022/08/28 05:49:32;;;;;;;13.13;3.90;;;17.80;99.90;;;;;;5248554;28;20625;-46
2022/08/28 05:52:03;;;;;;;6.93;3.77;;;18.00;99.90;;;;;;5246739;28;20197;-45
2022/08/28 05:54:33;;;;;;;16.10;3.90;;;17.90;99.90;;;;;;5245183;28;20695;-45
2022/08/28 05:57:04;;;;;;;7.47;3.20;;;17.90;99.90;;;;;;5245150;28;20522;-46
2022/08/28 05:59:35;;;;;;;16.27;3.47;;;18.00;99.90;;;;;;5248300;28;20281;-45
2022/08/28 06:02:05;;;;;;;5.47;3.67;;;18.00;99.90;;;;;;5240944;28;20183;-46
2022/08/28 06:04:39;;;;;;;8.03;3.60;;;18.00;99.90;;;;;;5243888;28;20179;-46
2022/08/28 06:07:12;;;;;;;11.77;4.00;;;18.00;99.90;;;;;;5248274;28;20743;-46
2022/08/28 06:09:43;;;;;;;6.30;3.90;;;18.00;99.90;;;;;;5249345;28;20449;-46
2022/08/28 06:12:14;;;;;;;10.53;4.20;;;17.90;99.90;;;;;;5247469;28;20520;-45
2022/08/28 06:14:45;;;;;;;9.43;4.13;;;17.70;99.90;;;;;;5246628;28;20205;-45
2022/08/28 06:17:15;;;;;;;9.63;3.83;;;17.70;99.90;;;;;;5244664;28;20436;-46
2022/08/28 06:19:46;;;;;;;17.93;4.70;;;17.60;99.90;;;;;;5240471;28;20196;-47
2022/08/28 06:22:17;;;;;;;8.13;4.00;;;17.70;99.90;;;;;;5244356;28;20210;-47
2022/08/28 06:24:47;;;;;;;14.37;4.17;;;17.80;99.90;;;;;;5246865;28;20681;-46
2022/08/28 06:27:18;;;;;;;12.53;4.80;;;17.90;99.90;;;;;;5243641;28;20472;-46
2022/08/28 06:29:49;;;;;;;9.20;4.27;;;17.70;99.90;;;;;;5244521;28;20198;-46
2022/08/28 06:32:19;;;;;;;14.23;4.43;;;17.70;99.90;;;;;;5242186;28;20626;-46
2022/08/28 06:34:50;;;;;;;15.53;4.17;;;17.80;99.90;;;;;;5244482;28;20293;-46
2022/08/28 06:37:21;;;;;;;8.53;4.00;;;17.90;99.90;;;;;;5228785;28;20948;-53
2022/08/28 06:39:51;;;;;;;20.33;6.10;;;18.10;99.90;;;;;;5242821;28;20194;-52
2022/08/28 06:42:22;;;;;;;12.50;5.20;;;18.40;99.90;;;;;;5240218;28;20182;-45
2022/08/28 06:44:52;;;;;;;24.23;4.93;;;18.30;99.90;;;;;;5238051;28;20182;-49
2022/08/28 06:47:23;;;;;;;10.63;4.17;;;18.30;99.90;;;;;;5234715;28;20321;-46
2022/08/28 06:49:53;;;;;;;13.97;5.27;;;18.50;99.90;;;;;;5240142;28;20209;-45
2022/08/28 06:52:24;;;;;;;12.90;4.60;;;18.20;99.90;;;;;;5236923;28;20264;-47
2022/08/28 06:54:55;;;;;;;11.43;3.70;;;18.40;99.90;;;;;;5241304;28;20205;-45
2022/08/28 06:57:26;;;;;;;8.10;3.70;;;18.70;99.90;;;;;;5243788;28;20179;-47
2022/08/28 06:59:57;;;;;;;13.33;4.27;;;19.00;99.90;;;;;;5245529;28;20479;-47
2022/08/28 07:02:28;;;;;;;6.33;3.83;;;19.00;99.90;;;;;;5237708;28;20217;-46
2022/08/28 07:04:59;;;;;;;11.13;4.20;;;19.10;99.90;;;;;;5248133;28;20901;-46
2022/08/28 07:07:29;;;;;;;9.47;4.83;;;19.00;99.90;;;;;;5243284;28;20179;-47
2022/08/28 07:10:00;;;;;;;8.33;4.30;;;18.60;99.90;;;;;;5248184;28;20995;-51
2022/08/28 07:12:31;;;;;;;9.80;4.20;;;18.50;99.90;;;;;;5239521;28;20590;-51
2022/08/28 07:15:03;;;;;;;12.57;5.13;;;18.50;99.90;;;;;;5242440;28;20210;-49
2022/08/28 07:17:33;;;;;;;16.27;4.17;;;18.80;99.90;;;;;;5247594;28;20175;-47
2022/08/28 07:20:05;;;;;;;10.13;4.70;;;19.20;99.90;;;;;;5235969;28;20459;-49
2022/08/28 07:22:39;;;;;;;14.80;4.30;;;19.80;99.90;;;;;;5237309;28;20259;-48
2022/08/28 07:25:10;;;;;;;13.40;4.33;;;19.80;99.90;;;;;;5234278;28;20440;-48
2022/08/28 07:27:41;;;;;;;12.63;4.57;;;20.30;99.90;;;;;;5237417;28;20443;-46
2022/08/28 07:30:12;;;;;;;10.23;4.50;;;20.50;99.90;;;;;;5234257;28;20221;-47
2022/08/28 07:32:42;;;;;;;8.33;3.23;;;20.50;99.90;;;;;;5232627;28;20213;-47
2022/08/28 07:35:13;;;;;;;16.70;4.03;;;20.40;99.90;;;;;;5239105;28;20480;-48
2022/08/28 07:37:44;;;;;;;10.23;4.27;;;20.20;99.90;;;;;;5235375;28;20285;-47
2022/08/28 07:40:15;;;;;;;13.37;3.80;;;20.20;99.90;;;;;;5240577;28;20201;-48
2022/08/28 07:45:35;;;;;;;13.73;4.73;;;20.00;99.90;;;;;;5236315;28;20975;-48
2022/08/28 07:48:07;;;;;;;8.53;3.73;;;20.00;99.90;;;;;;5234001;28;20438;-48
2022/08/28 07:50:37;;;;;;;22.70;4.10;;;19.90;99.90;;;;;;5240788;28;20269;-48
2022/08/28 07:53:08;;;;;;;15.30;4.00;;;19.90;99.90;;;;;;5234445;28;20546;-48
2022/08/28 07:55:38;;;;;;;8.73;4.47;;;19.70;99.90;;;;;;5236706;28;20216;-49
2022/08/28 07:58:10;;;;;;;5.87;3.67;;;19.80;99.90;;;;;;5243820;28;20567;-49
2022/08/28 08:00:40;;;;;;;8.13;4.57;;;19.50;99.90;;;;;;5246618;28;20281;-47
2022/08/28 08:03:12;;;;;;;11.00;4.20;;;19.90;99.90;;;;;;5224955;28;20540;-48
2022/08/28 08:05:55;;;;;;;6.73;4.10;;;20.00;99.90;;;;;;5242152;28;20179;-47
2022/08/28 08:08:25;;;;;;;14.40;4.17;;;20.20;99.90;;;;;;5241894;28;20439;-48
2022/08/28 08:11:00;;;;;;;7.63;3.77;;;20.40;99.90;;;;;;5236141;28;20429;-48
2022/08/28 08:13:32;;;;;;;8.97;3.53;;;21.00;99.90;;;;;;5242620;28;20607;-48
2022/08/28 08:16:11;;;;;;;10.83;4.23;;;21.50;99.90;;;;;;5245270;28;20465;-47
2022/08/28 08:18:42;;;;;;;12.33;4.17;;;21.40;99.90;;;;;;5244591;28;20463;-47
2022/08/28 08:21:15;;;;;;;9.17;5.00;;;21.00;99.90;;;;;;5240862;28;20460;-47
2022/08/28 08:23:47;;;;;;;12.00;4.13;;;20.30;99.90;;;;;;5244018;28;20436;-48
2022/08/28 08:26:20;;;;;;;7.63;3.73;;;20.10;99.90;;;;;;5245224;28;20912;-47
2022/08/28 08:28:51;;;;;;;7.80;3.47;;;20.00;99.90;;;;;;5241644;28;20447;-48
2022/08/28 08:31:28;;;;;;;10.60;4.40;;;20.00;99.90;;;;;;5239441;28;21007;-47
2022/08/28 08:34:02;;;;;;;13.80;5.33;;;20.10;99.90;;;;;;5237540;28;20213;-48
2022/08/28 08:36:36;;;;;;;11.00;5.17;;;20.10;99.90;;;;;;5242410;28;20436;-47
2022/08/28 08:39:07;;;;;;;15.47;4.83;;;20.00;99.90;;;;;;5244861;28;20452;-48
2022/08/28 08:41:47;;;;;;;4.20;3.70;;;20.20;99.90;;;;;;5245181;28;20539;-49
2022/08/28 08:44:35;;;;;;;8.63;4.07;;;20.00;99.90;;;;;;5243062;28;20173;-49
2022/08/28 08:47:18;;;;;;;7.50;4.63;;;19.80;99.90;;;;;;5244679;28;20423;-47
2022/08/28 08:49:54;;;;;;;13.67;5.00;;;20.00;99.90;;;;;;5245626;28;20468;-47
2022/08/28 08:52:44;;;;;;;12.80;4.60;;;19.80;99.90;;;;;;5244889;28;20470;-46
2022/08/28 08:55:30;;;;;;;9.57;4.47;;;19.70;99.90;;;;;;5254770;28;20464;-46
2022/08/28 08:58:09;;;;;;;9.03;4.03;;;19.60;99.90;;;;;;5244752;28;20428;-47
2022/08/28 09:01:02;;;;;;;9.10;5.63;;;19.50;99.90;;;;;;5241716;28;20435;-49
2022/08/28 09:03:54;;;;;;;7.40;4.03;;;19.40;99.90;;;;;;5242199;28;20439;-47
2022/08/28 09:06:48;;;;;;;18.67;5.30;;;19.40;99.90;;;;;;5232152;28;20433;-47
2022/08/28 09:09:31;;;;;;;8.60;4.60;;;19.20;99.90;;;;;;5238367;28;20540;-47
2022/08/28 09:12:06;;;;;;;9.37;5.13;;;19.10;99.90;;;;;;5228263;28;20437;-48
2022/08/28 09:15:08;;;;;;;14.40;7.07;;;19.20;99.90;;;;;;5234372;28;20451;-47
2022/08/28 09:17:48;;;;;;;17.40;5.33;;;19.30;99.90;;;;;;5246359;28;20790;-49
2022/08/28 09:20:22;;;;;;;7.57;4.83;;;19.10;99.90;;;;;;5249789;28;20585;-48
2022/08/28 09:22:54;;;;;;;10.27;4.67;;;19.00;99.90;;;;;;5241978;28;20524;-48
2022/08/28 09:25:43;;;;;;;19.20;5.50;;;19.10;99.90;;;;;;5248325;28;20464;-46
2022/08/28 09:28:27;;;;;;;13.07;4.93;;;19.00;99.90;;;;;;5247913;28;20935;-47
2022/08/28 09:31:09;;;;;;;13.80;6.10;;;18.60;99.90;;;;;;5244880;28;20596;-46
2022/08/28 09:33:44;;;;;;;10.70;5.40;;;18.60;99.90;;;;;;5249596;28;20432;-48
2022/08/28 09:36:35;;;;;;;20.77;6.07;;;18.90;99.90;;;;;;5246119;28;20574;-47
2022/08/28 09:39:06;;;;;;;15.03;5.93;;;19.10;99.90;;;;;;5244801;28;20540;-46
2022/08/28 09:44:58;;;;;;;6.30;4.83;;;19.60;99.90;;;;;;5247571;28;20202;-47
2022/08/28 09:47:50;;;;;;;14.30;5.90;;;19.60;99.90;;;;;;5249047;28;20865;-47
2022/08/28 09:50:34;;;;;;;11.47;4.57;;;19.60;99.90;;;;;;5242767;28;20440;-49
2022/08/28 09:53:10;;;;;;;11.70;5.50;;;19.80;99.90;;;;;;5236174;28;20834;-49
2022/08/28 09:55:54;;;;;;;13.77;5.20;;;19.60;99.90;;;;;;5246960;28;20463;-50
2022/08/28 09:58:45;;;;;;;10.67;5.10;;;19.80;99.90;;;;;;5247628;28;20856;-49
2022/08/28 10:01:54;;;;;;;13.37;4.70;;;19.80;99.90;;;;;;5247066;28;20463;-48
2022/08/28 10:04:32;;;;;;;15.33;5.40;;;20.00;99.90;;;;;;5244512;28;20987;-49
2022/08/28 10:07:05;;;;;;;6.83;4.47;;;20.10;99.90;;;;;;5241185;28;20840;-49
2022/08/28 10:09:39;;;;;;;13.77;5.33;;;20.40;99.90;;;;;;5240516;28;20464;-49
2022/08/28 10:12:34;;;;;;;11.80;5.87;;;20.50;99.90;;;;;;5241474;28;20465;-49
2022/08/28 10:15:16;;;;;;;8.57;5.20;;;20.30;99.90;;;;;;5241031;28;20461;-49
2022/08/28 10:18:01;;;;;;;16.23;6.60;;;20.20;99.90;;;;;;5240803;28;20783;-49
2022/08/28 10:20:41;;;;;;;15.70;6.07;;;20.10;99.90;;;;;;5235892;28;20433;-48
2022/08/28 10:23:34;;;;;;;12.77;6.10;;;19.90;99.90;;;;;;5239200;28;20528;-49
2022/08/28 10:26:30;;;;;;;18.33;6.40;;;19.60;99.90;;;;;;5205050;28;20974;-49
2022/08/28 10:29:13;;;;;;;10.90;5.63;;;19.40;99.90;;;;;;5242898;28;20471;-49
2022/08/28 10:32:22;;;;;;;14.20;6.47;;;19.40;99.90;;;;;;5242338;28;20432;-49
2022/08/28 10:35:12;;;;;;;13.30;6.50;;;19.40;99.90;;;;;;5243947;28;20455;-49
2022/08/28 10:37:53;;;;;;;19.40;9.10;;;19.40;99.90;;;;;;5242629;28;20476;-48
2022/08/28 10:40:43;;;;;;;36.60;9.17;;;19.30;99.90;;;;;;5249350;28;20442;-48
2022/08/28 10:43:30;;;;;;;10.17;6.10;;;19.30;99.90;;;;;;5238266;28;20437;-48
2022/08/28 10:46:10;;;;;;;9.43;6.23;;;19.30;99.90;;;;;;5245684;28;20482;-51
2022/08/28 10:48:45;;;;;;;9.40;5.10;;;19.40;99.90;;;;;;5245097;28;20797;-49
2022/08/28 10:51:31;;;;;;;23.50;7.17;;;19.40;99.90;;;;;;5238670;28;20957;-48
2022/08/28 10:54:27;;;;;;;20.23;6.60;;;19.30;99.90;;;;;;5236953;28;20433;-47
2022/08/28 10:57:06;;;;;;;11.20;6.33;;;19.30;99.90;;;;;;5242185;28;20856;-49
2022/08/28 10:59:40;;;;;;;17.87;7.40;;;19.40;99.90;;;;;;5244473;28;20434;-49
2022/08/28 11:02:13;;;;;;;17.10;8.30;;;19.30;99.90;;;;;;5238043;28;20876;-49
2022/08/28 11:04:46;;;;;;;23.20;10.13;;;19.40;99.90;;;;;;5245335;28;20966;-48
2022/08/28 11:07:48;;;;;;;20.03;9.20;;;19.40;99.90;;;;;;5239214;28;20436;-49
2022/08/28 11:10:18;;;;;;;27.73;12.33;;;19.50;99.90;;;;;;5239636;28;20495;-49
2022/08/28 11:12:51;;;;;;;12.27;7.30;;;19.30;99.90;;;;;;5242184;28;20874;-49
2022/08/28 11:15:27;;;;;;;21.10;7.83;;;19.00;99.90;;;;;;5245802;28;20191;-48
2022/08/28 11:18:33;;;;;;;19.90;7.60;;;18.90;99.90;;;;;;5244738;28;20447;-49
2022/08/28 11:21:17;;;;;;;10.10;6.83;;;18.90;99.90;;;;;;5242468;28;20436;-49
2022/08/28 11:24:04;;;;;;;14.17;7.60;;;19.20;99.90;;;;;;5235740;28;20417;-49
2022/08/28 11:27:04;;;;;;;11.70;6.63;;;19.10;99.90;;;;;;5238107;28;20539;-48
2022/08/28 11:29:57;;;;;;;14.93;5.33;;;19.20;99.90;;;;;;5245410;28;20480;-46
2022/08/28 11:32:30;;;;;;;39.17;15.57;;;19.30;99.90;;;;;;5244481;28;20416;-48
2022/08/28 11:35:03;;;;;;;29.80;11.93;;;19.40;99.90;;;;;;5242376;28;21011;-48
2022/08/28 11:37:41;;;;;;;8.77;7.07;;;19.50;99.90;;;;;;5242911;28;20574;-48
2022/08/28 11:40:20;;;;;;;20.00;7.23;;;19.40;99.90;;;;;;5243976;28;20463;-49
2022/08/28 11:42:50;;;;;;;13.33;8.13;;;19.20;99.90;;;;;;5244240;28;20432;-48
2022/08/28 11:45:41;;;;;;;18.50;8.60;;;19.20;99.90;;;;;;5261139;28;20448;-48
2022/08/28 11:48:38;;;;;;;12.60;7.40;;;19.20;99.90;;;;;;5244604;28;20209;-46
2022/08/28 11:51:17;;;;;;;20.53;6.97;;;19.20;99.90;;;;;;5241331;28;20440;-48
2022/08/28 11:54:16;;;;;;;23.63;10.30;;;19.00;99.90;;;;;;5239170;28;20432;-49
2022/08/28 11:56:50;;;;;;;15.63;8.70;;;18.90;99.90;;;;;;5240548;28;20475;-47
2022/08/28 11:59:48;;;;;;;27.40;12.63;;;18.80;99.90;;;;;;5237532;28;21027;-48
2022/08/28 12:02:34;;;;;;;8.80;6.10;;;18.80;99.90;;;;;;5237718;28;20424;-50
2022/08/28 12:05:09;;;;;;;21.57;10.20;;;18.80;99.90;;;;;;5235212;28;20439;-50
2022/08/28 12:07:46;;;;;;;21.50;12.17;;;18.90;99.90;;;;;;5240449;28;20518;-48
2022/08/28 12:10:23;;;;;;;14.87;8.60;;;18.90;99.90;;;;;;5236483;28;20538;-48
2022/08/28 12:13:01;;;;;;;10.90;7.57;;;18.70;99.90;;;;;;5242833;28;20428;-48
2022/08/28 12:15:32;;;;;;;23.97;10.90;;;18.50;99.90;;;;;;5241254;28;20530;-49
2022/08/28 12:18:12;;;;;;;12.07;7.90;;;18.70;99.90;;;;;;5244232;28;20496;-49
2022/08/28 12:20:59;;;;;;;15.93;7.83;;;18.80;99.90;;;;;;5244514;28;20923;-48
2022/08/28 12:23:42;;;;;;;9.77;6.97;;;18.70;99.90;;;;;;5237175;28;20955;-47
2022/08/28 12:26:28;;;;;;;13.97;8.00;;;18.80;99.90;;;;;;5244639;28;20444;-49
2022/08/28 12:29:02;;;;;;;11.67;7.30;;;19.00;99.90;;;;;;5244427;28;20872;-48
2022/08/28 12:32:10;;;;;;;10.63;7.10;;;19.10;99.90;;;;;;5244926;28;20984;-49
2022/08/28 12:34:59;;;;;;;17.50;9.00;;;19.10;99.90;;;;;;5237193;28;20502;-50
2022/08/28 12:37:45;;;;;;;7.00;6.20;;;19.00;99.90;;;;;;5243355;28;20438;-49
2022/08/28 12:40:32;;;;;;;10.20;6.20;;;19.40;99.90;;;;;;5243208;28;20471;-48
2022/08/28 12:43:11;;;;;;;13.63;6.77;;;19.30;99.90;;;;;;5238198;28;20436;-48
2022/08/28 12:45:48;;;;;;;8.07;7.23;;;19.60;99.90;;;;;;5242534;28;20433;-50
2022/08/28 12:48:31;;;;;;;19.70;11.70;;;19.40;99.90;;;;;;5243401;28;20479;-52
2022/08/28 12:51:07;;;;;;;14.83;8.00;;;19.40;99.90;;;;;;5247014;28;20772;-53
2022/08/28 12:53:45;;;;;;;16.07;6.70;;;19.70;99.90;;;;;;5241224;28;20943;-50
2022/08/28 12:56:18;;;;;;;12.37;6.53;;;19.70;99.90;;;;;;5235025;28;20460;-52
2022/08/28 12:58:49;;;;;;;12.33;6.83;;;19.50;99.90;;;;;;5242429;28;20823;-49
2022/08/28 13:01:20;;;;;;;10.97;8.03;;;19.40;99.90;;;;;;5249540;28;20425;-49
2022/08/28 13:03:55;;;;;;;11.83;7.47;;;19.20;99.90;;;;;;5243809;28;20749;-48
2022/08/28 13:06:30;;;;;;;8.80;6.20;;;19.20;99.90;;;;;;5242960;28;20182;-50
2022/08/28 13:09:11;;;;;;;9.33;6.80;;;19.40;99.90;;;;;;5233818;28;20451;-50
2022/08/28 13:11:48;;;;;;;10.93;6.60;;;19.40;99.90;;;;;;5244942;28;20885;-49
2022/08/28 13:14:41;;;;;;;11.00;5.33;;;18.90;99.90;;;;;;5238836;28;20440;-48
2022/08/28 13:17:14;;;;;;;9.43;6.70;;;18.80;99.90;;;;;;5232460;28;20503;-49
2022/08/28 13:19:59;;;;;;;12.80;6.60;;;19.00;99.90;;;;;;5238376;28;20934;-47
2022/08/28 13:22:38;;;;;;;7.50;6.70;;;19.00;99.90;;;;;;5238359;28;20428;-51
2022/08/28 13:25:18;;;;;;;7.10;5.83;;;19.10;99.90;;;;;;5246639;28;20880;-49
2022/08/28 13:28:01;;;;;;;9.23;5.87;;;19.10;99.90;;;;;;5236743;28;20439;-52
2022/08/28 13:30:34;;;;;;;6.60;6.00;;;19.30;99.90;;;;;;5237230;28;20437;-50
2022/08/28 13:33:18;;;;;;;12.80;7.70;;;19.80;99.90;;;;;;5239854;28;20451;-50